sensor_id;sensor_type;location;lat;lon;timestamp;temperature;humidity
42819;DHT22;30249;51.426;0.102;2022-07-29T00:00:56;17.50;91.00
42819;DHT22;30249;51.426;0.102;2022-07-29T00:03:24;17.50;91.40
42819;DHT22;30249;51.426;0.102;2022-07-29T00:05:52;17.40;91.60
42819;DHT22;30249;51.426;0.102;2022-07-29T00:08:21;17.40;91.40
42819;DHT22;30249;51.426;0.102;2022-07-29T00:10:50;17.40;92.20
42819;DHT22;30249;51.426;0.102;2022-07-29T00:13:17;17.30;92.50
42819;DHT22;30249;51.426;0.102;2022-07-29T00:15:59;16.60;92.90
42819;DHT22;30249;51.426;0.102;2022-07-29T00:18:32;17.20;92.80
42819;DHT22;30249;51.426;0.102;2022-07-29T00:21:00;17.20;92.50
42819;DHT22;30249;51.426;0.102;2022-07-29T00:23:33;17.20;92.80
42819;DHT22;30249;51.426;0.102;2022-07-29T00:26:03;17.20;92.70
42819;DHT22;30249;51.426;0.102;2022-07-29T00:28:31;15.50;92.60
42819;DHT22;30249;51.426;0.102;2022-07-29T00:30:59;17.20;92.90
42819;DHT22;30249;51.426;0.102;2022-07-29T00:33:27;17.20;93.10
42819;DHT22;30249;51.426;0.102;2022-07-29T00:35:55;17.20;92.80
42819;DHT22;30249;51.426;0.102;2022-07-29T00:38:26;16.30;93.60
42819;DHT22;30249;51.426;0.102;2022-07-29T00:40:54;17.30;93.20
42819;DHT22;30249;51.426;0.102;2022-07-29T00:43:22;17.30;93.20
42819;DHT22;30249;51.426;0.102;2022-07-29T00:45:51;16.60;93.20
42819;DHT22;30249;51.426;0.102;2022-07-29T00:48:19;17.60;93.00
42819;DHT22;30249;51.426;0.102;2022-07-29T00:50:48;17.20;93.60
42819;DHT22;30249;51.426;0.102;2022-07-29T00:53:16;17.20;93.00
42819;DHT22;30249;51.426;0.102;2022-07-29T00:55:44;17.20;93.50
42819;DHT22;30249;51.426;0.102;2022-07-29T00:58:12;17.20;93.70
42819;DHT22;30249;51.426;0.102;2022-07-29T01:00:42;17.20;93.80
42819;DHT22;30249;51.426;0.102;2022-07-29T01:03:12;16.20;93.30
42819;DHT22;30249;51.426;0.102;2022-07-29T01:05:44;17.20;93.60
42819;DHT22;30249;51.426;0.102;2022-07-29T01:08:18;17.10;93.80
42819;DHT22;30249;51.426;0.102;2022-07-29T01:10:46;17.70;94.10
42819;DHT22;30249;51.426;0.102;2022-07-29T01:13:15;16.90;94.00
42819;DHT22;30249;51.426;0.102;2022-07-29T01:15:45;17.20;93.90
42819;DHT22;30249;51.426;0.102;2022-07-29T01:32:22;17.20;93.80
42819;DHT22;30249;51.426;0.102;2022-07-29T01:37:22;17.20;93.90
42819;DHT22;30249;51.426;0.102;2022-07-29T01:39:52;17.20;94.10
42819;DHT22;30249;51.426;0.102;2022-07-29T01:45:10;17.20;93.70
42819;DHT22;30249;51.426;0.102;2022-07-29T01:47:44;17.20;93.90
42819;DHT22;30249;51.426;0.102;2022-07-29T01:50:14;17.20;94.20
42819;DHT22;30249;51.426;0.102;2022-07-29T01:55:13;17.20;94.10
42819;DHT22;30249;51.426;0.102;2022-07-29T01:57:42;16.40;93.90
42819;DHT22;30249;51.426;0.102;2022-07-29T02:00:10;17.30;94.30
42819;DHT22;30249;51.426;0.102;2022-07-29T02:02:40;17.40;94.10
42819;DHT22;30249;51.426;0.102;2022-07-29T02:05:09;17.30;94.00
42819;DHT22;30249;51.426;0.102;2022-07-29T02:07:40;17.30;94.00
42819;DHT22;30249;51.426;0.102;2022-07-29T02:10:08;16.60;93.80
42819;DHT22;30249;51.426;0.102;2022-07-29T02:12:37;17.60;93.90
42819;DHT22;30249;51.426;0.102;2022-07-29T02:15:07;17.30;94.10
42819;DHT22;30249;51.426;0.102;2022-07-29T02:17:46;17.30;94.00
42819;DHT22;30249;51.426;0.102;2022-07-29T02:20:15;17.30;94.00
42819;DHT22;30249;51.426;0.102;2022-07-29T02:22:43;17.20;94.30
42819;DHT22;30249;51.426;0.102;2022-07-29T02:25:12;17.20;94.40
42819;DHT22;30249;51.426;0.102;2022-07-29T02:27:40;17.10;94.40
42819;DHT22;30249;51.426;0.102;2022-07-29T02:30:10;17.10;94.60
42819;DHT22;30249;51.426;0.102;2022-07-29T02:32:40;17.00;94.50
42819;DHT22;30249;51.426;0.102;2022-07-29T02:35:09;17.00;94.60
42819;DHT22;30249;51.426;0.102;2022-07-29T02:37:39;17.00;94.70
42819;DHT22;30249;51.426;0.102;2022-07-29T02:40:09;17.00;94.80
42819;DHT22;30249;51.426;0.102;2022-07-29T02:42:38;17.20;95.00
42819;DHT22;30249;51.426;0.102;2022-07-29T02:45:09;16.90;94.90
42819;DHT22;30249;51.426;0.102;2022-07-29T02:47:41;16.80;94.90
42819;DHT22;30249;51.426;0.102;2022-07-29T02:50:15;16.80;94.90
42819;DHT22;30249;51.426;0.102;2022-07-29T02:52:44;16.50;94.70
42819;DHT22;30249;51.426;0.102;2022-07-29T03:00:26;16.70;95.10
42819;DHT22;30249;51.426;0.102;2022-07-29T03:02:56;16.60;95.10
42819;DHT22;30249;51.426;0.102;2022-07-29T03:05:26;16.60;95.10
42819;DHT22;30249;51.426;0.102;2022-07-29T03:07:55;16.50;95.20
42819;DHT22;30249;51.426;0.102;2022-07-29T03:10:27;16.50;95.40
42819;DHT22;30249;51.426;0.102;2022-07-29T03:12:55;16.20;95.10
42819;DHT22;30249;51.426;0.102;2022-07-29T03:15:25;16.40;95.30
42819;DHT22;30249;51.426;0.102;2022-07-29T03:17:53;16.40;95.40
42819;DHT22;30249;51.426;0.102;2022-07-29T03:20:23;16.40;95.40
42819;DHT22;30249;51.426;0.102;2022-07-29T03:22:51;16.40;95.40
42819;DHT22;30249;51.426;0.102;2022-07-29T03:25:20;16.30;95.40
42819;DHT22;30249;51.426;0.102;2022-07-29T03:27:48;15.80;95.20
42819;DHT22;30249;51.426;0.102;2022-07-29T03:30:16;16.30;95.80
42819;DHT22;30249;51.426;0.102;2022-07-29T03:32:50;16.20;96.00
42819;DHT22;30249;51.426;0.102;2022-07-29T03:38:39;16.00;96.10
42819;DHT22;30249;51.426;0.102;2022-07-29T03:41:10;15.80;96.50
42819;DHT22;30249;51.426;0.102;2022-07-29T03:43:38;15.70;96.40
42819;DHT22;30249;51.426;0.102;2022-07-29T03:46:16;15.70;96.60
42819;DHT22;30249;51.426;0.102;2022-07-29T03:48:46;15.60;96.60
42819;DHT22;30249;51.426;0.102;2022-07-29T03:51:16;15.50;96.80
42819;DHT22;30249;51.426;0.102;2022-07-29T03:53:43;15.50;96.90
42819;DHT22;30249;51.426;0.102;2022-07-29T03:56:11;15.40;96.60
42819;DHT22;30249;51.426;0.102;2022-07-29T03:58:41;15.40;97.20
42819;DHT22;30249;51.426;0.102;2022-07-29T04:01:09;15.30;97.10
42819;DHT22;30249;51.426;0.102;2022-07-29T04:03:38;15.30;97.20
42819;DHT22;30249;51.426;0.102;2022-07-29T04:06:06;15.20;97.30
42819;DHT22;30249;51.426;0.102;2022-07-29T04:08:34;15.20;97.40
42819;DHT22;30249;51.426;0.102;2022-07-29T04:11:02;15.30;97.40
42819;DHT22;30249;51.426;0.102;2022-07-29T04:13:30;15.10;97.40
42819;DHT22;30249;51.426;0.102;2022-07-29T04:15:58;15.10;97.50
42819;DHT22;30249;51.426;0.102;2022-07-29T04:18:26;15.00;97.40
42819;DHT22;30249;51.426;0.102;2022-07-29T04:20:54;15.00;97.50
42819;DHT22;30249;51.426;0.102;2022-07-29T04:23:29;15.00;98.00
42819;DHT22;30249;51.426;0.102;2022-07-29T04:25:59;15.00;98.00
42819;DHT22;30249;51.426;0.102;2022-07-29T04:28:28;14.90;98.00
42819;DHT22;30249;51.426;0.102;2022-07-29T04:30:58;14.80;97.80
42819;DHT22;30249;51.426;0.102;2022-07-29T04:33:26;14.80;97.80
42819;DHT22;30249;51.426;0.102;2022-07-29T04:35:54;14.80;97.90
42819;DHT22;30249;51.426;0.102;2022-07-29T04:38:22;14.80;97.70
42819;DHT22;30249;51.426;0.102;2022-07-29T04:40:50;14.80;98.00
42819;DHT22;30249;51.426;0.102;2022-07-29T04:43:18;14.80;97.80
42819;DHT22;30249;51.426;0.102;2022-07-29T04:45:49;14.80;98.50
42819;DHT22;30249;51.426;0.102;2022-07-29T04:48:17;14.80;97.90
42819;DHT22;30249;51.426;0.102;2022-07-29T04:50:45;14.70;98.20
42819;DHT22;30249;51.426;0.102;2022-07-29T04:53:12;14.80;98.20
42819;DHT22;30249;51.426;0.102;2022-07-29T04:55:40;14.80;98.60
42819;DHT22;30249;51.426;0.102;2022-07-29T04:58:08;14.70;98.20
42819;DHT22;30249;51.426;0.102;2022-07-29T05:00:38;14.70;98.50
42819;DHT22;30249;51.426;0.102;2022-07-29T05:03:06;14.70;98.50
42819;DHT22;30249;51.426;0.102;2022-07-29T05:05:37;14.70;98.30
42819;DHT22;30249;51.426;0.102;2022-07-29T05:08:05;14.80;98.60
42819;DHT22;30249;51.426;0.102;2022-07-29T05:10:36;14.70;98.60
42819;DHT22;30249;51.426;0.102;2022-07-29T05:13:06;14.80;98.40
42819;DHT22;30249;51.426;0.102;2022-07-29T05:15:36;14.80;98.60
42819;DHT22;30249;51.426;0.102;2022-07-29T05:18:06;14.80;98.60
42819;DHT22;30249;51.426;0.102;2022-07-29T05:20:36;14.80;98.50
42819;DHT22;30249;51.426;0.102;2022-07-29T05:23:04;16.10;99.10
42819;DHT22;30249;51.426;0.102;2022-07-29T05:25:33;14.90;98.80
42819;DHT22;30249;51.426;0.102;2022-07-29T05:28:10;14.90;98.50
42819;DHT22;30249;51.426;0.102;2022-07-29T05:30:38;15.00;98.50
42819;DHT22;30249;51.426;0.102;2022-07-29T05:33:06;15.10;98.50
42819;DHT22;30249;51.426;0.102;2022-07-29T05:35:54;15.20;98.40
42819;DHT22;30249;51.426;0.102;2022-07-29T05:38:28;16.70;98.90
42819;DHT22;30249;51.426;0.102;2022-07-29T05:40:58;15.40;98.40
42819;DHT22;30249;51.426;0.102;2022-07-29T05:43:27;15.50;98.20
42819;DHT22;30249;51.426;0.102;2022-07-29T05:45:55;15.60;98.20
42819;DHT22;30249;51.426;0.102;2022-07-29T05:48:23;15.70;98.00
42819;DHT22;30249;51.426;0.102;2022-07-29T05:50:51;15.90;98.00
42819;DHT22;30249;51.426;0.102;2022-07-29T05:53:23;16.00;97.80
42819;DHT22;30249;51.426;0.102;2022-07-29T05:55:51;16.10;97.80
42819;DHT22;30249;51.426;0.102;2022-07-29T05:58:19;16.30;97.60
42819;DHT22;30249;51.426;0.102;2022-07-29T06:00:48;16.40;97.40
42819;DHT22;30249;51.426;0.102;2022-07-29T06:03:16;16.50;97.20
42819;DHT22;30249;51.426;0.102;2022-07-29T06:05:44;16.60;97.30
42819;DHT22;30249;51.426;0.102;2022-07-29T06:08:12;16.80;97.10
42819;DHT22;30249;51.426;0.102;2022-07-29T06:10:40;16.90;97.10
42819;DHT22;30249;51.426;0.102;2022-07-29T06:13:08;17.00;96.90
42819;DHT22;30249;51.426;0.102;2022-07-29T06:15:35;17.10;96.90
42819;DHT22;30249;51.426;0.102;2022-07-29T06:18:03;17.20;96.80
42819;DHT22;30249;51.426;0.102;2022-07-29T06:20:31;17.30;96.90
42819;DHT22;30249;51.426;0.102;2022-07-29T06:22:59;17.60;96.80
42819;DHT22;30249;51.426;0.102;2022-07-29T06:25:27;17.50;96.70
42819;DHT22;30249;51.426;0.102;2022-07-29T06:27:59;17.60;96.60
42819;DHT22;30249;51.426;0.102;2022-07-29T06:30:26;17.80;96.60
42819;DHT22;30249;51.426;0.102;2022-07-29T06:32:56;17.80;96.40
42819;DHT22;30249;51.426;0.102;2022-07-29T06:35:23;17.90;96.40
42819;DHT22;30249;51.426;0.102;2022-07-29T06:38:08;18.00;96.70
42819;DHT22;30249;51.426;0.102;2022-07-29T06:40:58;18.40;96.20
42819;DHT22;30249;51.426;0.102;2022-07-29T06:43:34;18.20;96.40
42819;DHT22;30249;51.426;0.102;2022-07-29T06:46:17;18.30;96.30
42819;DHT22;30249;51.426;0.102;2022-07-29T06:48:46;18.40;96.50
42819;DHT22;30249;51.426;0.102;2022-07-29T06:51:17;18.50;96.40
42819;DHT22;30249;51.426;0.102;2022-07-29T06:53:49;18.60;96.20
42819;DHT22;30249;51.426;0.102;2022-07-29T06:56:30;18.70;96.20
42819;DHT22;30249;51.426;0.102;2022-07-29T06:59:04;18.80;96.20
42819;DHT22;30249;51.426;0.102;2022-07-29T07:01:32;18.90;96.10
42819;DHT22;30249;51.426;0.102;2022-07-29T07:04:00;19.00;96.10
42819;DHT22;30249;51.426;0.102;2022-07-29T07:06:29;19.10;96.10
42819;DHT22;30249;51.426;0.102;2022-07-29T07:08:56;19.20;95.90
42819;DHT22;30249;51.426;0.102;2022-07-29T07:11:24;19.40;96.10
42819;DHT22;30249;51.426;0.102;2022-07-29T07:13:55;19.40;96.00
42819;DHT22;30249;51.426;0.102;2022-07-29T07:16:43;19.50;95.70
42819;DHT22;30249;51.426;0.102;2022-07-29T07:19:11;19.60;95.70
42819;DHT22;30249;51.426;0.102;2022-07-29T07:21:40;19.80;95.60
42819;DHT22;30249;51.426;0.102;2022-07-29T07:24:07;19.90;95.40
42819;DHT22;30249;51.426;0.102;2022-07-29T07:26:36;20.00;95.20
42819;DHT22;30249;51.426;0.102;2022-07-29T07:29:05;20.00;95.10
42819;DHT22;30249;51.426;0.102;2022-07-29T07:31:33;19.90;95.10
42819;DHT22;30249;51.426;0.102;2022-07-29T07:34:06;20.10;95.20
42819;DHT22;30249;51.426;0.102;2022-07-29T07:36:34;20.10;95.20
42819;DHT22;30249;51.426;0.102;2022-07-29T07:39:02;20.00;95.10
42819;DHT22;30249;51.426;0.102;2022-07-29T07:41:58;20.00;95.40
42819;DHT22;30249;51.426;0.102;2022-07-29T07:44:32;20.00;95.30
42819;DHT22;30249;51.426;0.102;2022-07-29T07:47:20;19.90;95.30
42819;DHT22;30249;51.426;0.102;2022-07-29T07:49:51;19.80;95.40
42819;DHT22;30249;51.426;0.102;2022-07-29T07:52:20;19.80;95.50
42819;DHT22;30249;51.426;0.102;2022-07-29T07:54:50;19.80;95.50
42819;DHT22;30249;51.426;0.102;2022-07-29T07:57:18;19.80;95.70
42819;DHT22;30249;51.426;0.102;2022-07-29T07:59:46;19.80;95.60
42819;DHT22;30249;51.426;0.102;2022-07-29T08:02:13;19.90;95.50
42819;DHT22;30249;51.426;0.102;2022-07-29T08:04:41;20.00;95.40
42819;DHT22;30249;51.426;0.102;2022-07-29T08:07:11;20.00;95.20
42819;DHT22;30249;51.426;0.102;2022-07-29T08:09:39;20.10;95.00
42819;DHT22;30249;51.426;0.102;2022-07-29T08:12:06;20.20;95.00
42819;DHT22;30249;51.426;0.102;2022-07-29T08:14:36;20.30;94.60
42819;DHT22;30249;51.426;0.102;2022-07-29T08:17:04;20.40;94.30
42819;DHT22;30249;51.426;0.102;2022-07-29T08:19:32;20.40;94.40
42819;DHT22;30249;51.426;0.102;2022-07-29T08:22:00;20.40;93.60
42819;DHT22;30249;51.426;0.102;2022-07-29T08:24:27;20.40;93.70
42819;DHT22;30249;51.426;0.102;2022-07-29T08:27:13;20.50;93.30
42819;DHT22;30249;51.426;0.102;2022-07-29T08:30:04;20.50;93.30
42819;DHT22;30249;51.426;0.102;2022-07-29T08:32:35;20.60;92.60
42819;DHT22;30249;51.426;0.102;2022-07-29T08:35:20;20.60;92.00
42819;DHT22;30249;51.426;0.102;2022-07-29T08:37:49;20.60;92.30
42819;DHT22;30249;51.426;0.102;2022-07-29T08:40:17;20.70;92.10
42819;DHT22;30249;51.426;0.102;2022-07-29T08:42:45;20.70;92.30
42819;DHT22;30249;51.426;0.102;2022-07-29T08:45:12;20.80;92.50
42819;DHT22;30249;51.426;0.102;2022-07-29T08:47:40;20.90;92.10
42819;DHT22;30249;51.426;0.102;2022-07-29T08:50:12;20.90;92.20
42819;DHT22;30249;51.426;0.102;2022-07-29T08:52:42;20.90;91.90
42819;DHT22;30249;51.426;0.102;2022-07-29T08:55:10;21.00;91.40
42819;DHT22;30249;51.426;0.102;2022-07-29T08:57:38;21.10;91.20
42819;DHT22;30249;51.426;0.102;2022-07-29T09:00:18;21.10;90.00
42819;DHT22;30249;51.426;0.102;2022-07-29T09:02:47;21.20;90.50
42819;DHT22;30249;51.426;0.102;2022-07-29T09:05:16;21.30;90.10
42819;DHT22;30249;51.426;0.102;2022-07-29T09:07:43;21.40;90.00
42819;DHT22;30249;51.426;0.102;2022-07-29T09:10:16;21.40;90.10
42819;DHT22;30249;51.426;0.102;2022-07-29T09:12:44;21.50;85.80
42819;DHT22;30249;51.426;0.102;2022-07-29T09:15:14;21.50;86.30
42819;DHT22;30249;51.426;0.102;2022-07-29T09:17:42;21.50;87.60
42819;DHT22;30249;51.426;0.102;2022-07-29T09:20:11;21.60;87.40
42819;DHT22;30249;51.426;0.102;2022-07-29T09:22:39;21.70;88.40
42819;DHT22;30249;51.426;0.102;2022-07-29T09:25:10;21.70;87.50
42819;DHT22;30249;51.426;0.102;2022-07-29T09:27:38;21.80;86.70
42819;DHT22;30249;51.426;0.102;2022-07-29T09:30:10;21.80;87.20
42819;DHT22;30249;51.426;0.102;2022-07-29T09:32:56;21.90;87.90
42819;DHT22;30249;51.426;0.102;2022-07-29T09:35:26;22.00;87.80
42819;DHT22;30249;51.426;0.102;2022-07-29T09:37:54;22.00;87.60
42819;DHT22;30249;51.426;0.102;2022-07-29T09:40:23;22.10;86.90
42819;DHT22;30249;51.426;0.102;2022-07-29T09:42:51;22.30;85.70
42819;DHT22;30249;51.426;0.102;2022-07-29T09:45:27;22.30;86.80
42819;DHT22;30249;51.426;0.102;2022-07-29T09:47:56;22.40;84.90
42819;DHT22;30249;51.426;0.102;2022-07-29T09:50:35;22.40;84.40
42819;DHT22;30249;51.426;0.102;2022-07-29T09:53:02;22.60;85.40
42819;DHT22;30249;51.426;0.102;2022-07-29T09:55:30;22.70;84.70
42819;DHT22;30249;51.426;0.102;2022-07-29T09:58:19;22.80;84.60
42819;DHT22;30249;51.426;0.102;2022-07-29T10:00:47;22.90;84.50
42819;DHT22;30249;51.426;0.102;2022-07-29T10:03:17;22.90;83.40
42819;DHT22;30249;51.426;0.102;2022-07-29T10:05:48;23.00;83.10
42819;DHT22;30249;51.426;0.102;2022-07-29T10:08:30;23.10;84.50
42819;DHT22;30249;51.426;0.102;2022-07-29T10:11:09;23.20;83.40
42819;DHT22;30249;51.426;0.102;2022-07-29T10:13:40;23.30;82.80
42819;DHT22;30249;51.426;0.102;2022-07-29T10:16:10;23.40;83.20
42819;DHT22;30249;51.426;0.102;2022-07-29T10:18:44;23.40;81.50
42819;DHT22;30249;51.426;0.102;2022-07-29T10:21:14;23.50;81.40
42819;DHT22;30249;51.426;0.102;2022-07-29T10:24:01;23.60;81.30
42819;DHT22;30249;51.426;0.102;2022-07-29T10:26:29;23.70;79.60
42819;DHT22;30249;51.426;0.102;2022-07-29T10:28:58;23.90;78.80
42819;DHT22;30249;51.426;0.102;2022-07-29T10:31:38;24.00;79.60
42819;DHT22;30249;51.426;0.102;2022-07-29T10:34:23;24.10;77.70
42819;DHT22;30249;51.426;0.102;2022-07-29T10:44:43;24.50;76.60
42819;DHT22;30249;51.426;0.102;2022-07-29T10:47:21;24.60;75.30
42819;DHT22;30249;51.426;0.102;2022-07-29T10:49:59;24.70;75.40
42819;DHT22;30249;51.426;0.102;2022-07-29T10:55:33;24.90;74.10
42819;DHT22;30249;51.426;0.102;2022-07-29T10:58:15;25.00;72.70
42819;DHT22;30249;51.426;0.102;2022-07-29T11:00:46;25.10;72.40
42819;DHT22;30249;51.426;0.102;2022-07-29T11:06:08;25.20;71.80
42819;DHT22;30249;51.426;0.102;2022-07-29T11:08:46;25.30;70.80
42819;DHT22;30249;51.426;0.102;2022-07-29T11:17:18;25.50;72.20
42819;DHT22;30249;51.426;0.102;2022-07-29T11:19:47;25.60;71.70
42819;DHT22;30249;51.426;0.102;2022-07-29T11:22:32;25.70;70.20
42819;DHT22;30249;51.426;0.102;2022-07-29T11:25:14;25.80;70.20
42819;DHT22;30249;51.426;0.102;2022-07-29T11:27:46;26.00;70.40
42819;DHT22;30249;51.426;0.102;2022-07-29T11:31:00;26.10;69.70
42819;DHT22;30249;51.426;0.102;2022-07-29T11:33:25;26.30;70.50
42819;DHT22;30249;51.426;0.102;2022-07-29T11:39:30;26.40;69.20
42819;DHT22;30249;51.426;0.102;2022-07-29T11:45:22;26.60;67.30
42819;DHT22;30249;51.426;0.102;2022-07-29T11:48:16;26.70;67.30
42819;DHT22;30249;51.426;0.102;2022-07-29T11:50:58;26.80;66.40
42819;DHT22;30249;51.426;0.102;2022-07-29T11:53:32;26.90;66.40
42819;DHT22;30249;51.426;0.102;2022-07-29T11:56:00;27.10;67.10
42819;DHT22;30249;51.426;0.102;2022-07-29T11:58:30;27.20;67.50
42819;DHT22;30249;51.426;0.102;2022-07-29T12:00:58;27.20;66.90
42819;DHT22;30249;51.426;0.102;2022-07-29T12:06:28;27.30;66.70
42819;DHT22;30249;51.426;0.102;2022-07-29T12:09:06;27.40;65.90
42819;DHT22;30249;51.426;0.102;2022-07-29T12:11:45;27.50;66.60
42819;DHT22;30249;51.426;0.102;2022-07-29T12:14:29;27.60;67.10
42819;DHT22;30249;51.426;0.102;2022-07-29T12:19:57;27.60;66.00
42819;DHT22;30249;51.426;0.102;2022-07-29T12:25:01;27.70;66.50
42819;DHT22;30249;51.426;0.102;2022-07-29T12:28:06;26.10;64.70
42819;DHT22;30249;51.426;0.102;2022-07-29T12:30:52;27.90;64.90
42819;DHT22;30249;51.426;0.102;2022-07-29T12:33:24;27.90;65.20
42819;DHT22;30249;51.426;0.102;2022-07-29T12:36:35;27.90;64.80
42819;DHT22;30249;51.426;0.102;2022-07-29T12:38:46;28.10;64.40
42819;DHT22;30249;51.426;0.102;2022-07-29T12:41:14;28.20;65.20
42819;DHT22;30249;51.426;0.102;2022-07-29T12:43:54;28.30;63.50
42819;DHT22;30249;51.426;0.102;2022-07-29T12:46:22;28.80;63.80
42819;DHT22;30249;51.426;0.102;2022-07-29T12:48:50;28.60;64.40
42819;DHT22;30249;51.426;0.102;2022-07-29T12:51:18;28.80;64.00
42819;DHT22;30249;51.426;0.102;2022-07-29T12:54:12;28.90;63.70
42819;DHT22;30249;51.426;0.102;2022-07-29T12:56:41;29.10;61.80
42819;DHT22;30249;51.426;0.102;2022-07-29T12:59:21;29.30;62.10
42819;DHT22;30249;51.426;0.102;2022-07-29T13:01:50;29.30;61.80
42819;DHT22;30249;51.426;0.102;2022-07-29T13:04:28;29.40;61.40
42819;DHT22;30249;51.426;0.102;2022-07-29T13:07:00;29.60;61.10
42819;DHT22;30249;51.426;0.102;2022-07-29T13:09:39;29.60;60.70
42819;DHT22;30249;51.426;0.102;2022-07-29T13:12:09;29.70;61.50
42819;DHT22;30249;51.426;0.102;2022-07-29T13:14:39;29.80;61.80
42819;DHT22;30249;51.426;0.102;2022-07-29T13:17:12;30.00;61.80
42819;DHT22;30249;51.426;0.102;2022-07-29T13:20:03;30.00;60.40
42819;DHT22;30249;51.426;0.102;2022-07-29T13:22:36;30.00;60.70
42819;DHT22;30249;51.426;0.102;2022-07-29T13:25:05;29.80;60.50
42819;DHT22;30249;51.426;0.102;2022-07-29T13:27:36;29.70;60.30
42819;DHT22;30249;51.426;0.102;2022-07-29T13:30:08;29.70;59.90
42819;DHT22;30249;51.426;0.102;2022-07-29T13:32:36;29.60;60.00
42819;DHT22;30249;51.426;0.102;2022-07-29T13:35:07;29.80;60.40
42819;DHT22;30249;51.426;0.102;2022-07-29T13:37:35;29.90;59.70
42819;DHT22;30249;51.426;0.102;2022-07-29T13:40:09;29.90;60.20
42819;DHT22;30249;51.426;0.102;2022-07-29T13:42:38;30.20;59.50
42819;DHT22;30249;51.426;0.102;2022-07-29T13:45:07;30.50;59.40
42819;DHT22;30249;51.426;0.102;2022-07-29T13:47:34;30.70;59.60
42819;DHT22;30249;51.426;0.102;2022-07-29T13:50:05;31.00;58.50
42819;DHT22;30249;51.426;0.102;2022-07-29T13:52:35;31.40;58.90
42819;DHT22;30249;51.426;0.102;2022-07-29T13:55:03;31.60;58.10
42819;DHT22;30249;51.426;0.102;2022-07-29T13:57:31;31.90;56.80
42819;DHT22;30249;51.426;0.102;2022-07-29T13:59:59;32.10;57.20
42819;DHT22;30249;51.426;0.102;2022-07-29T14:02:26;32.30;58.20
42819;DHT22;30249;51.426;0.102;2022-07-29T14:04:54;32.40;57.50
42819;DHT22;30249;51.426;0.102;2022-07-29T14:07:22;32.70;56.70
42819;DHT22;30249;51.426;0.102;2022-07-29T14:09:50;32.90;56.40
42819;DHT22;30249;51.426;0.102;2022-07-29T14:12:17;32.80;56.80
42819;DHT22;30249;51.426;0.102;2022-07-29T14:14:47;32.70;55.20
42819;DHT22;30249;51.426;0.102;2022-07-29T14:17:18;32.40;56.00
42819;DHT22;30249;51.426;0.102;2022-07-29T14:19:46;32.20;56.40
42819;DHT22;30249;51.426;0.102;2022-07-29T14:22:14;32.00;55.90
42819;DHT22;30249;51.426;0.102;2022-07-29T14:24:42;31.70;55.80
42819;DHT22;30249;51.426;0.102;2022-07-29T14:27:10;31.40;55.90
42819;DHT22;30249;51.426;0.102;2022-07-29T14:29:38;31.10;56.50
42819;DHT22;30249;51.426;0.102;2022-07-29T14:32:09;30.80;56.30
42819;DHT22;30249;51.426;0.102;2022-07-29T14:34:42;30.30;56.70
42819;DHT22;30249;51.426;0.102;2022-07-29T14:37:09;30.10;57.50
42819;DHT22;30249;51.426;0.102;2022-07-29T14:39:42;30.30;57.90
42819;DHT22;30249;51.426;0.102;2022-07-29T14:42:10;30.80;57.40
42819;DHT22;30249;51.426;0.102;2022-07-29T14:44:39;31.50;56.90
42819;DHT22;30249;51.426;0.102;2022-07-29T14:47:10;32.10;55.80
42819;DHT22;30249;51.426;0.102;2022-07-29T14:49:38;32.50;55.10
42819;DHT22;30249;51.426;0.102;2022-07-29T14:52:06;33.00;54.30
42819;DHT22;30249;51.426;0.102;2022-07-29T14:54:33;33.40;55.30
42819;DHT22;30249;51.426;0.102;2022-07-29T14:57:01;33.80;54.30
42819;DHT22;30249;51.426;0.102;2022-07-29T14:59:29;34.00;54.40
42819;DHT22;30249;51.426;0.102;2022-07-29T15:01:57;34.20;54.00
42819;DHT22;30249;51.426;0.102;2022-07-29T15:04:25;34.50;53.10
42819;DHT22;30249;51.426;0.102;2022-07-29T15:09:46;35.10;53.50
42819;DHT22;30249;51.426;0.102;2022-07-29T15:12:16;35.40;53.20
42819;DHT22;30249;51.426;0.102;2022-07-29T15:14:44;35.30;53.10
42819;DHT22;30249;51.426;0.102;2022-07-29T15:17:14;35.30;52.50
42819;DHT22;30249;51.426;0.102;2022-07-29T15:19:42;35.40;51.90
42819;DHT22;30249;51.426;0.102;2022-07-29T15:22:11;35.50;52.30
42819;DHT22;30249;51.426;0.102;2022-07-29T15:24:39;35.60;51.90
42819;DHT22;30249;51.426;0.102;2022-07-29T15:27:06;36.00;52.10
42819;DHT22;30249;51.426;0.102;2022-07-29T15:29:34;36.30;51.90
42819;DHT22;30249;51.426;0.102;2022-07-29T15:32:01;36.50;51.10
42819;DHT22;30249;51.426;0.102;2022-07-29T15:34:29;36.60;50.00
42819;DHT22;30249;51.426;0.102;2022-07-29T15:36:57;36.40;51.50
42819;DHT22;30249;51.426;0.102;2022-07-29T15:39:24;36.00;50.00
42819;DHT22;30249;51.426;0.102;2022-07-29T15:42:00;35.80;51.30
42819;DHT22;30249;51.426;0.102;2022-07-29T15:44:29;35.70;51.20
42819;DHT22;30249;51.426;0.102;2022-07-29T15:46:58;35.80;50.60
42819;DHT22;30249;51.426;0.102;2022-07-29T15:49:36;36.10;50.70
42819;DHT22;30249;51.426;0.102;2022-07-29T15:52:18;36.50;50.80
42819;DHT22;30249;51.426;0.102;2022-07-29T15:55:00;36.80;50.60
42819;DHT22;30249;51.426;0.102;2022-07-29T15:57:28;36.70;49.40
42819;DHT22;30249;51.426;0.102;2022-07-29T15:59:56;36.20;49.40
42819;DHT22;30249;51.426;0.102;2022-07-29T16:02:24;35.60;49.60
42819;DHT22;30249;51.426;0.102;2022-07-29T16:04:51;34.90;49.70
42819;DHT22;30249;51.426;0.102;2022-07-29T16:07:20;34.00;50.20
42819;DHT22;30249;51.426;0.102;2022-07-29T16:09:51;33.50;51.10
42819;DHT22;30249;51.426;0.102;2022-07-29T16:12:19;32.80;51.50
42819;DHT22;30249;51.426;0.102;2022-07-29T16:14:47;32.40;51.90
42819;DHT22;30249;51.426;0.102;2022-07-29T16:17:18;31.90;52.80
42819;DHT22;30249;51.426;0.102;2022-07-29T16:19:47;31.50;52.40
42819;DHT22;30249;51.426;0.102;2022-07-29T16:22:20;31.00;52.70
42819;DHT22;30249;51.426;0.102;2022-07-29T16:24:50;30.50;53.10
42819;DHT22;30249;51.426;0.102;2022-07-29T16:27:19;30.10;54.00
42819;DHT22;30249;51.426;0.102;2022-07-29T16:29:51;29.80;53.90
42819;DHT22;30249;51.426;0.102;2022-07-29T16:32:19;29.50;54.50
42819;DHT22;30249;51.426;0.102;2022-07-29T16:34:48;29.30;54.70
42819;DHT22;30249;51.426;0.102;2022-07-29T16:37:16;29.30;54.90
42819;DHT22;30249;51.426;0.102;2022-07-29T16:39:44;29.40;55.00
42819;DHT22;30249;51.426;0.102;2022-07-29T16:42:16;29.60;54.80
42819;DHT22;30249;51.426;0.102;2022-07-29T16:45:04;30.00;54.60
42819;DHT22;30249;51.426;0.102;2022-07-29T16:47:31;30.60;55.70
42819;DHT22;30249;51.426;0.102;2022-07-29T16:49:59;30.90;58.00
42819;DHT22;30249;51.426;0.102;2022-07-29T16:52:27;31.00;57.80
42819;DHT22;30249;51.426;0.102;2022-07-29T16:54:54;30.90;59.30
42819;DHT22;30249;51.426;0.102;2022-07-29T16:57:22;30.70;59.20
42819;DHT22;30249;51.426;0.102;2022-07-29T16:59:52;30.20;60.20
42819;DHT22;30249;51.426;0.102;2022-07-29T17:02:20;29.80;62.10